Time;durP1;ratioP1;P1;durP2;ratioP2;P2;SDS_P1;SDS_P2;PMS_P1;PMS_P2;Temp;Humidity;BMP_temperature;BMP_pressure;BME280_temperature;BME280_humidity;BME280_pressure;Samples;Min_cycle;Max_cycle;Signal;HPM_P1;HPM_P2
2022/11/19 00:01:25;;;;;;;1999.90;999.90;;;1.40;99.90;;;;;;5042947;28;20946;-71
2022/11/19 00:03:51;;;;;;;1999.90;999.90;;;1.40;99.90;;;;;;5033730;28;20061;-71
2022/11/19 00:06:18;;;;;;;1999.90;999.90;;;1.40;99.90;;;;;;5036222;28;20057;-71
2022/11/19 00:08:45;;;;;;;1999.90;999.90;;;1.30;99.90;;;;;;5051815;28;20460;-71
2022/11/19 00:12:53;;;;;;;1999.90;999.90;;;1.40;99.90;;;;;;5034092;28;20461;-71
2022/11/19 00:14:08;;;;;;;1999.90;999.90;;;1.40;99.90;;;;;;5058430;28;20057;-71
2022/11/19 00:16:34;;;;;;;1999.90;999.90;;;1.30;99.90;;;;;;5037816;28;20365;-71
2022/11/19 00:18:59;;;;;;;1999.90;999.90;;;1.30;99.90;;;;;;5040016;28;20051;-71
2022/11/19 00:21:25;;;;;;;1999.90;999.90;;;1.30;99.90;;;;;;5038786;28;20048;-71
2022/11/19 00:23:54;;;;;;;1999.90;999.90;;;1.30;99.90;;;;;;5032836;28;20620;-71
2022/11/19 00:26:20;;;;;;;1999.90;999.90;;;1.30;99.90;;;;;;5039633;28;20048;-71
2022/11/19 00:28:46;;;;;;;1999.90;999.90;;;1.30;99.90;;;;;;5037231;28;20071;-71
2022/11/19 00:31:13;;;;;;;1999.90;999.90;;;1.30;99.90;;;;;;5044001;28;20548;-71
2022/11/19 00:33:40;;;;;;;1999.90;999.90;;;1.30;99.90;;;;;;5045945;28;20069;-71
2022/11/19 00:36:08;;;;;;;1999.90;999.90;;;1.20;99.90;;;;;;5039929;28;20076;-71
2022/11/19 00:38:34;;;;;;;1999.90;999.90;;;1.20;99.90;;;;;;5038127;28;20040;-71
2022/11/19 00:41:00;;;;;;;1999.90;999.90;;;1.10;99.90;;;;;;5023144;28;20173;-71
2022/11/19 00:46:10;;;;;;;1999.90;999.90;;;1.00;99.90;;;;;;5042381;28;20497;-71
2022/11/19 00:48:37;;;;;;;1999.90;999.90;;;1.00;99.90;;;;;;5040132;28;20052;-71
2022/11/19 00:51:04;;;;;;;1999.90;999.90;;;0.90;99.90;;;;;;5044174;28;20044;-71
2022/11/19 00:53:30;;;;;;;1999.90;999.90;;;0.90;99.90;;;;;;5046093;28;20041;-71
2022/11/19 00:56:03;;;;;;;1999.90;999.90;;;0.80;99.90;;;;;;5022327;28;20036;-71
2022/11/19 00:58:29;;;;;;;1999.90;999.90;;;0.80;99.90;;;;;;5043905;28;20484;-71
2022/11/19 01:00:54;;;;;;;1999.90;999.90;;;0.70;99.90;;;;;;5049216;28;20232;-71
2022/11/19 01:03:21;;;;;;;1999.90;999.90;;;0.60;99.90;;;;;;5039216;28;20398;-71
2022/11/19 01:05:46;;;;;;;1999.90;999.90;;;0.60;99.90;;;;;;5037709;28;20045;-71
2022/11/19 01:08:12;;;;;;;1999.90;999.90;;;0.50;99.90;;;;;;5023647;28;20040;-71
2022/11/19 01:10:38;;;;;;;1999.90;999.90;;;0.50;99.90;;;;;;5019916;28;20400;-71
2022/11/19 01:15:49;;;;;;;1999.90;999.90;;;0.40;99.90;;;;;;5038232;28;20045;-71
2022/11/19 01:18:16;;;;;;;1999.90;999.90;;;0.50;99.90;;;;;;5035433;28;20037;-71
2022/11/19 01:20:41;;;;;;;1999.90;999.90;;;0.40;99.90;;;;;;5043880;28;20448;-71
2022/11/19 01:23:07;;;;;;;1999.90;999.90;;;0.40;99.90;;;;;;5043589;28;20088;-71
2022/11/19 01:25:32;;;;;;;1999.90;999.90;;;0.30;99.90;;;;;;5040867;28;20106;-71
2022/11/19 01:27:58;;;;;;;1999.90;999.90;;;0.30;99.90;;;;;;5025046;28;20049;-71
2022/11/19 01:30:23;;;;;;;1999.90;999.90;;;0.30;99.90;;;;;;5043475;28;20055;-71
2022/11/19 01:32:49;;;;;;;1999.90;999.90;;;0.30;99.90;;;;;;5040983;28;20037;-71
2022/11/19 01:35:15;;;;;;;1999.90;999.90;;;0.30;99.90;;;;;;5032507;28;20064;-71
2022/11/19 01:37:40;;;;;;;1999.90;999.90;;;0.30;99.90;;;;;;5040952;28;20083;-70
2022/11/19 01:40:06;;;;;;;1999.90;999.90;;;0.30;99.90;;;;;;5039473;28;20049;-71
2022/11/19 01:42:48;;;;;;;1999.90;999.90;;;0.30;99.90;;;;;;5040287;28;20052;-71
2022/11/19 01:45:36;;;;;;;1999.90;999.90;;;0.30;99.90;;;;;;5038117;28;20048;-70
2022/11/19 01:48:28;;;;;;;1999.90;999.90;;;0.30;99.90;;;;;;5039531;28;20128;-71
2022/11/19 01:51:01;;;;;;;1999.90;999.90;;;0.30;99.90;;;;;;5042174;28;20046;-70
2022/11/19 01:53:30;;;;;;;1999.90;999.90;;;0.20;99.90;;;;;;5036952;28;20041;-71
2022/11/19 01:56:02;;;;;;;1999.90;999.90;;;0.20;99.90;;;;;;5048729;28;20044;-70
2022/11/19 01:58:31;;;;;;;1999.90;999.90;;;0.20;99.90;;;;;;5049258;28;20043;-71
2022/11/19 02:00:57;;;;;;;1999.90;999.90;;;0.10;99.90;;;;;;5037569;28;20036;-70
2022/11/19 02:03:24;;;;;;;1999.90;999.90;;;0.10;99.90;;;;;;5041172;28;20513;-71
2022/11/19 02:05:50;;;;;;;1999.90;999.90;;;0.10;99.90;;;;;;5017128;28;20100;-70
2022/11/19 02:08:40;;;;;;;1999.90;999.90;;;0.10;99.90;;;;;;5042061;28;20025;-70
2022/11/19 02:11:28;;;;;;;1999.90;999.90;;;0.10;99.90;;;;;;5040297;28;20087;-70
2022/11/19 02:14:33;;;;;;;1999.90;999.90;;;0.10;99.90;;;;;;5035916;28;20041;-70
2022/11/19 02:17:32;;;;;;;1999.90;999.90;;;0.10;99.90;;;;;;5037187;28;20047;-70
2022/11/19 02:20:25;;;;;;;1999.90;999.90;;;0.10;99.90;;;;;;5039108;28;20642;-70
2022/11/19 02:23:21;;;;;;;1999.90;999.90;;;0.10;99.90;;;;;;5039594;28;20443;-70
2022/11/19 02:26:08;;;;;;;1999.90;999.90;;;0.10;99.90;;;;;;5036505;28;20482;-70
2022/11/19 02:28:39;;;;;;;1999.90;999.90;;;0.10;99.90;;;;;;5035567;28;20107;-70
2022/11/19 02:31:21;;;;;;;1999.90;999.90;;;0.00;99.90;;;;;;5028770;28;20056;-70
2022/11/19 02:34:04;;;;;;;1999.90;999.90;;;0.00;99.90;;;;;;5020851;28;20053;-70
2022/11/19 02:36:34;;;;;;;;;;;0.00;99.90;;;;;;5051914;28;20122;-70
2022/11/19 02:39:06;;;;;;;1999.90;999.90;;;0.00;99.90;;;;;;5041920;28;19999;-70
2022/11/19 02:41:34;;;;;;;1999.90;999.90;;;-0.10;99.90;;;;;;5041237;28;20045;-70
2022/11/19 02:47:05;;;;;;;;;;;-0.10;99.90;;;;;;5036538;28;20049;-70
2022/11/19 02:49:33;;;;;;;1999.90;999.90;;;-0.10;99.90;;;;;;5040867;28;20039;-70
2022/11/19 02:51:59;;;;;;;1999.90;999.90;;;-0.10;99.90;;;;;;5041621;28;20408;-70
2022/11/19 02:54:26;;;;;;;1999.90;999.90;;;-0.20;99.90;;;;;;5039022;28;20041;-70
2022/11/19 02:56:54;;;;;;;1999.90;999.90;;;-0.20;99.90;;;;;;5038525;28;20049;-70
2022/11/19 03:05:19;;;;;;;1999.90;999.90;;;-0.30;99.90;;;;;;5038588;28;20056;-70
2022/11/19 03:07:45;;;;;;;1999.90;999.90;;;-0.30;99.90;;;;;;5037527;28;20045;-70
2022/11/19 03:10:12;;;;;;;1999.90;999.90;;;-0.40;99.90;;;;;;5021777;28;20128;-70
2022/11/19 03:12:48;;;;;;;1999.90;999.90;;;-0.40;99.90;;;;;;5033347;28;20047;-70
2022/11/19 03:18:10;;;;;;;1999.90;999.90;;;-0.50;99.90;;;;;;5037172;28;20053;-70
2022/11/19 03:20:39;;;;;;;1999.90;999.90;;;-0.50;99.90;;;;;;5039812;28;20063;-70
2022/11/19 03:23:10;;;;;;;1999.90;999.90;;;-0.50;99.90;;;;;;5023465;28;20074;-70
2022/11/19 03:25:49;;;;;;;1999.90;999.90;;;-0.60;99.90;;;;;;5036190;28;20408;-70
2022/11/19 03:28:21;;;;;;;1999.90;999.90;;;-0.60;99.90;;;;;;5036248;28;20084;-70
2022/11/19 03:30:48;;;;;;;1999.90;999.90;;;-0.70;99.90;;;;;;5035625;28;20093;-70
2022/11/19 03:33:40;;;;;;;1999.90;999.90;;;-0.70;99.90;;;;;;5015082;28;20045;-70
2022/11/19 03:36:11;;;;;;;1999.90;999.90;;;-0.70;99.90;;;;;;5030764;28;20457;-70
2022/11/19 03:38:45;;;;;;;1999.90;999.90;;;-0.70;99.90;;;;;;5032471;28;20440;-70
2022/11/19 03:41:14;;;;;;;1999.90;999.90;;;-0.70;99.90;;;;;;5037738;28;20519;-69
2022/11/19 03:43:44;;;;;;;1999.90;999.90;;;-0.70;99.90;;;;;;5040799;28;20439;-69
2022/11/19 03:46:13;;;;;;;1999.90;999.90;;;-0.80;99.90;;;;;;5024553;28;20068;-69
2022/11/19 03:48:41;;;;;;;1999.90;999.90;;;-0.80;99.90;;;;;;5042008;28;20041;-69
2022/11/19 03:51:15;;;;;;;1999.90;999.90;;;-0.80;99.90;;;;;;5053802;28;20120;-69
2022/11/19 03:53:40;;;;;;;1999.90;999.90;;;-0.80;99.90;;;;;;5021711;28;20041;-69
2022/11/19 03:56:09;;;;;;;1999.90;999.90;;;-0.80;99.90;;;;;;5039279;28;20041;-69
2022/11/19 03:58:40;;;;;;;1999.90;999.90;;;-0.90;99.90;;;;;;5037223;28;20029;-69
2022/11/19 04:01:07;;;;;;;1999.90;999.90;;;-0.90;99.90;;;;;;5026448;28;20041;-69
2022/11/19 04:03:32;;;;;;;1999.90;999.90;;;-0.90;99.90;;;;;;5038057;28;20048;-68
2022/11/19 04:05:58;;;;;;;1999.90;999.90;;;-0.90;99.90;;;;;;5029671;28;20396;-68
2022/11/19 04:08:23;;;;;;;1999.90;999.90;;;-0.90;99.90;;;;;;5039629;28;20041;-68
2022/11/19 04:10:49;;;;;;;1999.90;999.90;;;-0.90;99.90;;;;;;5043304;28;20041;-68
2022/11/19 04:13:14;;;;;;;1999.90;999.90;;;-0.90;99.90;;;;;;5046814;28;20468;-68
2022/11/19 04:15:40;;;;;;;1999.90;999.90;;;-0.90;99.90;;;;;;5023509;28;20049;-68
2022/11/19 04:18:05;;;;;;;1999.90;999.90;;;-0.80;99.90;;;;;;5036689;28;20041;-68
2022/11/19 04:20:31;;;;;;;1999.90;999.90;;;-0.90;99.90;;;;;;5026222;28;20049;-68
2022/11/19 04:22:56;;;;;;;1999.90;999.90;;;-0.90;99.90;;;;;;5039994;28;20037;-68
2022/11/19 04:25:22;;;;;;;1999.90;999.90;;;-0.90;99.90;;;;;;5040900;28;20057;-68
2022/11/19 04:27:48;;;;;;;1999.90;999.90;;;-0.90;99.90;;;;;;5040230;28;20401;-68
2022/11/19 04:30:14;;;;;;;1999.90;999.90;;;-0.90;99.90;;;;;;5040504;28;20476;-68
2022/11/19 04:32:40;;;;;;;1999.90;999.90;;;-0.90;99.90;;;;;;5027827;28;20485;-68
2022/11/19 04:35:05;;;;;;;1999.90;999.90;;;-1.00;99.90;;;;;;5040707;28;20041;-68
2022/11/19 04:37:31;;;;;;;1999.90;999.90;;;-1.00;99.90;;;;;;5047221;28;20052;-68
2022/11/19 04:39:57;;;;;;;1999.90;999.90;;;-0.90;99.90;;;;;;5036567;28;20041;-67
2022/11/19 04:42:22;;;;;;;1999.90;999.90;;;-1.00;99.90;;;;;;5022118;28;20095;-68
2022/11/19 04:44:48;;;;;;;1999.90;999.90;;;-0.90;99.90;;;;;;5046852;28;20128;-68
2022/11/19 04:47:13;;;;;;;1999.90;999.90;;;-1.00;99.90;;;;;;5034174;28;20063;-68
2022/11/19 04:49:39;;;;;;;1999.90;999.90;;;-1.00;99.90;;;;;;5042116;28;20073;-68
2022/11/19 04:52:04;;;;;;;1999.90;999.90;;;-1.00;99.90;;;;;;5022220;28;20412;-67
2022/11/19 04:54:30;;;;;;;1999.90;999.90;;;-1.00;99.90;;;;;;5043135;28;20037;-68
2022/11/19 04:56:55;;;;;;;1999.90;999.90;;;-1.10;99.90;;;;;;5042621;28;20112;-67
2022/11/19 04:59:21;;;;;;;1999.90;999.90;;;-1.10;99.90;;;;;;5043743;28;20045;-68
2022/11/19 05:01:48;;;;;;;1999.90;999.90;;;-1.10;99.90;;;;;;5027620;28;20124;-67
2022/11/19 05:04:13;;;;;;;1999.90;999.90;;;-1.10;99.90;;;;;;5043079;28;20049;-67
2022/11/19 05:06:39;;;;;;;1999.90;999.90;;;-1.10;99.90;;;;;;5040794;28;20033;-68
2022/11/19 05:09:04;;;;;;;1999.90;999.90;;;-1.10;99.90;;;;;;5036141;28;20071;-67
2022/11/19 05:11:30;;;;;;;1999.90;999.90;;;-1.10;99.90;;;;;;5038610;28;20684;-67
2022/11/19 05:13:55;;;;;;;1999.90;999.90;;;-1.20;99.90;;;;;;5040575;28;20516;-67
2022/11/19 05:16:21;;;;;;;1999.90;999.90;;;-1.20;99.90;;;;;;5044547;28;20037;-68
2022/11/19 05:18:46;;;;;;;1999.90;999.90;;;-1.30;99.90;;;;;;5038110;28;20040;-67
2022/11/19 05:21:12;;;;;;;1999.90;999.90;;;-1.30;99.90;;;;;;5041447;28;20041;-67
2022/11/19 05:23:38;;;;;;;1999.90;999.90;;;-1.40;99.90;;;;;;5043109;28;20049;-67
2022/11/19 05:26:04;;;;;;;1999.90;999.90;;;-1.40;99.90;;;;;;5037440;28;20057;-67
2022/11/19 05:28:31;;;;;;;1999.90;999.90;;;-1.40;99.90;;;;;;5043252;28;20055;-67
2022/11/19 05:30:57;;;;;;;1999.90;999.90;;;-1.40;99.90;;;;;;5042134;28;20049;-67
2022/11/19 05:33:23;;;;;;;1999.90;999.90;;;-1.50;99.90;;;;;;5030164;28;20044;-67
2022/11/19 05:35:49;;;;;;;1999.90;999.90;;;-1.50;99.90;;;;;;5045478;28;20044;-67
2022/11/19 05:38:15;;;;;;;1999.90;999.90;;;-1.50;99.90;;;;;;5050831;28;20045;-67
2022/11/19 05:40:44;;;;;;;1999.90;999.90;;;-1.50;99.90;;;;;;5036425;28;20044;-67
2022/11/19 05:43:09;;;;;;;1999.90;999.90;;;-1.50;99.90;;;;;;5042388;28;20052;-67
2022/11/19 05:45:35;;;;;;;1999.90;999.90;;;-1.40;99.90;;;;;;5024293;28;20037;-67
2022/11/19 05:48:00;;;;;;;1999.90;999.90;;;-1.40;99.90;;;;;;5019521;28;20098;-67
2022/11/19 05:50:26;;;;;;;1999.90;999.90;;;-1.40;99.90;;;;;;5024993;28;20056;-67
2022/11/19 05:52:51;;;;;;;1999.90;999.90;;;-1.40;99.90;;;;;;5036699;28;20890;-67
2022/11/19 05:55:17;;;;;;;1999.90;999.90;;;-1.40;99.90;;;;;;5044213;28;20059;-67
2022/11/19 05:57:43;;;;;;;1999.90;999.90;;;-1.40;99.90;;;;;;5041758;28;20041;-67
2022/11/19 06:00:09;;;;;;;1999.90;999.90;;;-1.40;99.90;;;;;;5045174;28;20049;-67
2022/11/19 06:02:35;;;;;;;1999.90;999.90;;;-1.50;99.90;;;;;;5046581;28;20088;-67
2022/11/19 06:05:01;;;;;;;1999.90;999.90;;;-1.50;99.90;;;;;;5038829;28;20520;-67
2022/11/19 06:07:26;;;;;;;1999.90;999.90;;;-1.50;99.90;;;;;;5040064;28;20476;-67
2022/11/19 06:09:52;;;;;;;1999.90;999.90;;;-1.50;99.90;;;;;;5023898;28;20061;-67
2022/11/19 06:12:17;;;;;;;1999.90;999.90;;;-1.50;99.90;;;;;;5040636;28;20048;-67
2022/11/19 06:14:43;;;;;;;1999.90;999.90;;;-1.50;99.90;;;;;;5041534;28;20047;-67
2022/11/19 06:17:09;;;;;;;1999.90;999.90;;;-1.60;99.90;;;;;;5038503;28;20047;-67
2022/11/19 06:19:34;;;;;;;1999.90;999.90;;;-1.60;99.90;;;;;;5026575;28;20396;-67
2022/11/19 06:22:00;;;;;;;1999.90;999.90;;;-1.60;99.90;;;;;;5044047;28;20404;-67
2022/11/19 06:24:26;;;;;;;1999.90;999.90;;;-1.60;99.90;;;;;;5025926;28;20076;-67
2022/11/19 06:26:51;;;;;;;1999.90;999.90;;;-1.70;99.90;;;;;;5018707;28;20041;-67
2022/11/19 06:29:18;;;;;;;1999.90;999.90;;;-1.70;99.90;;;;;;5039727;28;20041;-67
2022/11/19 06:31:44;;;;;;;1999.90;999.90;;;-1.70;99.90;;;;;;5036181;28;20037;-67
2022/11/19 06:34:10;;;;;;;1999.90;999.90;;;-1.70;99.90;;;;;;5034673;28;20049;-67
2022/11/19 06:36:35;;;;;;;1999.90;999.90;;;-1.80;99.90;;;;;;5023041;28;20040;-67
2022/11/19 06:39:01;;;;;;;1999.90;999.90;;;-1.80;99.90;;;;;;5015507;28;20048;-67
2022/11/19 06:41:27;;;;;;;1999.90;999.90;;;-1.80;99.90;;;;;;5038137;28;20110;-67
2022/11/19 06:43:52;;;;;;;1999.90;999.90;;;-1.80;99.90;;;;;;5042472;28;20477;-67
2022/11/19 06:46:18;;;;;;;1999.90;999.90;;;-1.80;99.90;;;;;;5038226;28;20073;-67
2022/11/19 06:48:44;;;;;;;1999.90;999.90;;;-1.80;99.90;;;;;;5041992;28;20033;-67
2022/11/19 06:51:09;;;;;;;1999.90;999.90;;;-1.80;99.90;;;;;;5038722;28;20132;-67
2022/11/19 06:53:35;;;;;;;1999.90;999.90;;;-1.90;99.90;;;;;;5023557;28;20057;-67
2022/11/19 06:56:05;;;;;;;1999.90;999.90;;;-1.90;99.90;;;;;;5040851;28;20071;-67
2022/11/19 06:58:31;;;;;;;1999.90;999.90;;;-1.90;99.90;;;;;;5037533;28;20077;-66
2022/11/19 07:00:57;;;;;;;1999.90;999.90;;;-1.90;99.90;;;;;;5038435;28;20092;-66
2022/11/19 07:03:23;;;;;;;1999.90;999.90;;;-1.90;99.90;;;;;;5044040;28;20045;-66
2022/11/19 07:05:53;;;;;;;1999.90;999.90;;;-1.90;99.90;;;;;;5043256;28;20373;-66
2022/11/19 07:08:18;;;;;;;1999.90;999.90;;;-1.90;99.90;;;;;;5042554;28;20111;-66
2022/11/19 07:10:44;;;;;;;1999.90;999.90;;;-1.90;99.90;;;;;;5032138;28;20096;-66
2022/11/19 07:13:09;;;;;;;1999.90;999.90;;;-1.90;99.90;;;;;;5040496;28;20389;-66
2022/11/19 07:15:35;;;;;;;1999.90;999.90;;;-1.90;99.90;;;;;;5035290;28;20033;-67
2022/11/19 07:18:01;;;;;;;1999.90;999.90;;;-1.90;99.90;;;;;;5039014;28;20068;-67
2022/11/19 07:20:27;;;;;;;1999.90;999.90;;;-1.90;99.90;;;;;;5038512;28;20041;-66
2022/11/19 07:22:52;;;;;;;1999.90;999.90;;;-1.90;99.90;;;;;;5037411;28;20253;-66
2022/11/19 07:25:19;;;;;;;1999.90;999.90;;;-1.90;99.90;;;;;;5039053;28;20057;-66
2022/11/19 07:27:46;;;;;;;1999.90;999.90;;;-1.90;99.90;;;;;;5050593;28;20041;-66
2022/11/19 07:30:13;;;;;;;1999.90;999.90;;;-1.80;99.90;;;;;;5020329;28;20510;-66
2022/11/19 07:32:39;;;;;;;1999.90;999.90;;;-1.80;99.90;;;;;;5036990;28;20175;-66
2022/11/19 07:35:05;;;;;;;1999.90;999.90;;;-1.80;99.90;;;;;;5027173;28;20119;-66
2022/11/19 07:37:30;;;;;;;1999.90;999.90;;;-1.70;99.90;;;;;;5044408;28;20289;-66
2022/11/19 07:39:56;;;;;;;1999.90;999.90;;;-1.70;99.90;;;;;;5020551;28;20540;-66
2022/11/19 07:45:06;;;;;;;1999.90;999.90;;;-1.60;99.90;;;;;;5042490;28;20408;-66
2022/11/19 07:47:33;;;;;;;1999.90;999.90;;;-1.60;99.90;;;;;;5043344;28;20079;-66
2022/11/19 07:49:58;;;;;;;1999.90;999.90;;;-1.60;99.90;;;;;;5042247;28;20037;-66
2022/11/19 07:52:24;;;;;;;1999.90;999.90;;;-1.60;99.90;;;;;;5038753;28;20436;-66
2022/11/19 07:54:50;;;;;;;1999.90;999.90;;;-1.50;99.90;;;;;;5053697;28;20041;-66
2022/11/19 07:57:15;;;;;;;1999.90;999.90;;;-1.30;99.90;;;;;;5042491;28;20415;-66
2022/11/19 07:59:41;;;;;;;1999.90;999.90;;;-1.00;99.90;;;;;;5042751;28;20513;-66
2022/11/19 08:02:10;;;;;;;1999.90;999.90;;;-0.60;99.90;;;;;;5031445;28;20049;-66
2022/11/19 08:04:35;;;;;;;1999.90;999.90;;;-0.40;99.90;;;;;;5046555;28;20049;-66
2022/11/19 08:07:01;;;;;;;1999.90;999.90;;;-0.20;99.90;;;;;;5021948;28;20547;-66
2022/11/19 08:09:26;;;;;;;1999.90;999.90;;;0.00;99.90;;;;;;5040985;28;20454;-66
2022/11/19 08:11:52;;;;;;;1999.90;999.90;;;0.20;99.90;;;;;;5027887;28;20483;-66
2022/11/19 08:14:17;;;;;;;1999.90;999.90;;;0.50;99.90;;;;;;5037932;28;20396;-67
2022/11/19 08:19:27;;;;;;;1999.90;999.90;;;0.70;99.90;;;;;;5041558;28;20070;-67
2022/11/19 08:21:52;;;;;;;1999.90;999.90;;;0.90;99.90;;;;;;5025940;28;20507;-67
2022/11/19 08:24:19;;;;;;;1999.90;999.90;;;1.20;99.90;;;;;;5046786;28;20140;-67
2022/11/19 08:26:45;;;;;;;1999.90;999.90;;;1.20;99.90;;;;;;5051416;28;20420;-67
2022/11/19 08:29:13;;;;;;;1999.90;999.90;;;1.00;99.90;;;;;;5038629;28;20056;-68
2022/11/19 08:31:40;;;;;;;1999.90;999.90;;;0.90;99.90;;;;;;5055379;28;20045;-68
2022/11/19 08:34:05;;;;;;;1999.90;999.90;;;1.20;99.90;;;;;;5050995;28;20037;-68
2022/11/19 08:36:31;;;;;;;1999.90;999.90;;;1.40;99.90;;;;;;5039460;28;20448;-68
2022/11/19 08:38:59;;;;;;;1999.90;999.90;;;1.40;99.90;;;;;;5042189;28;20041;-68
2022/11/19 08:44:11;;;;;;;1999.90;999.90;;;1.60;99.90;;;;;;5017586;28;20045;-69
2022/11/19 08:46:37;;;;;;;1999.90;999.90;;;1.80;99.90;;;;;;5041788;28;20041;-69
2022/11/19 08:49:03;;;;;;;1999.90;999.90;;;2.10;99.90;;;;;;5046187;28;20060;-69
2022/11/19 08:51:28;;;;;;;1999.90;999.90;;;2.30;99.90;;;;;;5040102;28;20425;-69
2022/11/19 08:53:54;;;;;;;1999.90;999.90;;;2.40;99.90;;;;;;5042052;28;20400;-69
2022/11/19 08:56:20;;;;;;;1999.90;999.90;;;2.40;99.90;;;;;;5023026;28;20037;-69
2022/11/19 08:58:46;;;;;;;1999.90;999.90;;;2.50;99.90;;;;;;5040936;28;20041;-69
2022/11/19 09:01:15;;;;;;;1999.90;999.90;;;2.50;99.90;;;;;;5040616;28;20025;-69
2022/11/19 09:03:42;;;;;;;1999.90;999.90;;;2.50;99.90;;;;;;5043342;28;20037;-70
2022/11/19 09:06:07;;;;;;;1999.90;999.90;;;2.50;99.90;;;;;;5041576;28;20051;-70
2022/11/19 09:08:33;;;;;;;1999.90;999.90;;;2.60;99.90;;;;;;5047502;28;20033;-70
2022/11/19 09:11:04;;;;;;;1999.90;999.90;;;2.70;99.90;;;;;;5039238;28;20509;-70
2022/11/19 09:13:29;;;;;;;1999.90;999.90;;;2.70;99.90;;;;;;5043076;28;20112;-69
2022/11/19 09:15:55;;;;;;;1999.90;999.90;;;2.70;99.90;;;;;;5039419;28;20116;-70
2022/11/19 09:18:20;;;;;;;1999.90;999.90;;;2.70;99.90;;;;;;5037150;28;20105;-70
2022/11/19 09:20:52;;;;;;;1999.90;999.90;;;2.60;99.90;;;;;;5037176;28;20079;-69
2022/11/19 09:23:18;;;;;;;1999.90;999.90;;;2.60;99.90;;;;;;5037282;28;20111;-69
2022/11/19 09:25:43;;;;;;;1999.90;999.90;;;2.60;99.90;;;;;;5019696;28;20495;-70
2022/11/19 09:28:10;;;;;;;1999.90;999.90;;;2.60;99.90;;;;;;5039160;28;20420;-70
2022/11/19 09:30:35;;;;;;;1999.90;999.90;;;2.50;99.90;;;;;;5043753;28;20052;-70
2022/11/19 09:33:01;;;;;;;1999.90;999.90;;;2.40;99.90;;;;;;5019887;28;20037;-70
2022/11/19 09:35:26;;;;;;;1999.90;999.90;;;2.40;99.90;;;;;;5040789;28;20029;-70
2022/11/19 09:37:52;;;;;;;1999.90;999.90;;;2.40;99.90;;;;;;5040350;28;20516;-70
2022/11/19 09:40:20;;;;;;;1999.90;999.90;;;2.30;99.90;;;;;;5035149;28;20071;-70
2022/11/19 09:43:00;;;;;;;1999.90;999.90;;;2.30;99.90;;;;;;5038565;28;20045;-70
2022/11/19 09:45:45;;;;;;;1999.90;999.90;;;2.30;99.90;;;;;;5041138;28;20098;-70
2022/11/19 09:48:30;;;;;;;1999.90;999.90;;;2.30;99.90;;;;;;5022319;28;20079;-69
2022/11/19 09:51:04;;;;;;;1999.90;999.90;;;2.30;99.90;;;;;;5046748;28;20497;-70
2022/11/19 09:53:36;;;;;;;1999.90;999.90;;;2.30;99.90;;;;;;5042184;28;20118;-70
2022/11/19 09:56:02;;;;;;;1999.90;999.90;;;2.30;99.90;;;;;;5040019;28;20443;-70
2022/11/19 09:58:57;;;;;;;1999.90;999.90;;;2.30;99.90;;;;;;5039695;28;20041;-70
2022/11/19 10:01:24;;;;;;;1999.90;999.90;;;2.30;99.90;;;;;;5025670;28;20076;-70
2022/11/19 10:03:52;;;;;;;1999.90;999.90;;;2.30;99.90;;;;;;5039728;28;20502;-70
2022/11/19 10:06:48;;;;;;;1999.90;999.90;;;2.30;99.90;;;;;;5035945;28;20055;-70
2022/11/19 10:09:23;;;;;;;1999.90;999.90;;;2.40;99.90;;;;;;5043248;28;20108;-70
2022/11/19 10:12:11;;;;;;;1999.90;999.90;;;2.30;99.90;;;;;;5037248;28;20445;-70
2022/11/19 10:14:47;;;;;;;1999.90;999.90;;;2.40;99.90;;;;;;5042769;28;20040;-70
2022/11/19 10:17:22;;;;;;;1999.90;999.90;;;2.50;99.90;;;;;;5044746;28;20454;-70
2022/11/19 10:20:25;;;;;;;1999.90;999.90;;;2.60;99.90;;;;;;5041235;28;20114;-70
2022/11/19 10:23:14;;;;;;;1999.90;999.90;;;2.80;99.90;;;;;;5020449;28;20045;-70
2022/11/19 10:25:46;;;;;;;1999.90;999.90;;;2.90;99.90;;;;;;5057178;28;20436;-70
2022/11/19 10:28:17;;;;;;;1999.90;999.90;;;3.00;99.90;;;;;;5040711;28;20045;-70
2022/11/19 10:30:53;;;;;;;1999.90;999.90;;;3.20;99.90;;;;;;5035331;28;20052;-70
2022/11/19 10:33:31;;;;;;;1999.90;999.90;;;3.40;99.90;;;;;;5035737;28;21025;-70
2022/11/19 10:36:08;;;;;;;1999.90;999.90;;;3.50;99.90;;;;;;5024608;28;20037;-70
2022/11/19 10:39:01;;;;;;;1999.90;999.90;;;3.70;99.90;;;;;;5059177;28;20041;-69
2022/11/19 10:42:03;;;;;;;1999.90;999.90;;;3.80;99.90;;;;;;5036465;28;20049;-70
2022/11/19 10:44:52;;;;;;;1999.90;999.90;;;4.00;99.90;;;;;;5017883;28;20370;-70
2022/11/19 10:47:22;;;;;;;1999.90;999.90;;;4.10;99.90;;;;;;5048619;28;20042;-69
2022/11/19 10:49:57;;;;;;;1999.90;999.90;;;4.20;99.90;;;;;;5039066;28;20045;-70
2022/11/19 10:52:47;;;;;;;1999.90;999.90;;;4.30;99.90;;;;;;5039726;28;20052;-69
2022/11/19 10:55:31;;;;;;;1999.90;999.90;;;4.30;99.90;;;;;;5053531;28;20488;-70
2022/11/19 10:58:18;;;;;;;1999.90;999.90;;;4.10;99.90;;;;;;5040893;28;20492;-69
2022/11/19 11:00:44;;;;;;;1999.90;999.90;;;4.10;99.90;;;;;;5038408;28;20045;-69
2022/11/19 11:03:36;;;;;;;1999.90;999.90;;;4.10;99.90;;;;;;5022528;28;20721;-69
2022/11/19 11:06:05;;;;;;;1999.90;999.90;;;3.90;99.90;;;;;;5033072;28;20413;-69
2022/11/19 11:08:47;;;;;;;1999.90;999.90;;;3.80;99.90;;;;;;5055733;28;20077;-69
2022/11/19 11:11:24;;;;;;;1999.90;999.90;;;3.80;99.90;;;;;;5054694;28;20393;-69
2022/11/19 11:16:45;;;;;;;1999.90;999.90;;;3.90;99.90;;;;;;5038789;28;20041;-69
2022/11/19 11:19:16;;;;;;;1999.90;999.90;;;4.00;99.90;;;;;;5028758;28;20045;-69
2022/11/19 11:21:42;;;;;;;1999.90;999.90;;;4.10;99.90;;;;;;5042132;28;20049;-69
2022/11/19 11:24:10;;;;;;;1999.90;999.90;;;4.20;99.90;;;;;;5044214;28;20033;-69
2022/11/19 11:26:36;;;;;;;1999.90;999.90;;;4.30;99.90;;;;;;5036074;28;20055;-69
2022/11/19 11:29:24;;;;;;;1999.90;999.90;;;4.40;99.90;;;;;;5039662;28;20064;-70
2022/11/19 11:31:49;;;;;;;1999.90;999.90;;;4.40;99.90;;;;;;5038223;28;20036;-69
2022/11/19 11:34:38;;;;;;;1999.90;999.90;;;4.40;99.90;;;;;;5025986;28;20043;-69
2022/11/19 11:37:05;;;;;;;1999.90;999.90;;;4.40;99.90;;;;;;5046920;28;20049;-69
2022/11/19 11:39:35;;;;;;;1999.90;999.90;;;4.30;99.90;;;;;;5040544;28;20767;-69
2022/11/19 11:42:03;;;;;;;1999.90;999.90;;;4.20;99.90;;;;;;5046928;28;20053;-69
2022/11/19 11:44:34;;;;;;;1999.90;999.90;;;4.20;99.90;;;;;;5037995;28;20374;-69
2022/11/19 11:47:18;;;;;;;1999.90;999.90;;;4.20;99.90;;;;;;5020943;28;20392;-69
2022/11/19 11:49:55;;;;;;;1999.90;999.90;;;4.20;99.90;;;;;;5039681;28;20095;-69
2022/11/19 11:52:43;;;;;;;1999.90;999.90;;;4.30;99.90;;;;;;5040692;28;20045;-69
2022/11/19 11:55:30;;;;;;;1999.90;999.90;;;4.30;99.90;;;;;;5052622;28;20389;-69
2022/11/19 11:58:01;;;;;;;1999.90;999.90;;;4.30;99.90;;;;;;5052102;28;20056;-69
2022/11/19 12:00:41;;;;;;;1999.90;999.90;;;4.30;99.90;;;;;;5045976;28;20076;-69
2022/11/19 12:03:12;;;;;;;1999.90;999.90;;;4.40;99.90;;;;;;5041072;28;20040;-69
2022/11/19 12:05:53;;;;;;;1999.90;999.90;;;4.30;99.90;;;;;;5035087;28;20123;-69
2022/11/19 12:08:27;;;;;;;1999.90;999.90;;;4.40;99.90;;;;;;5034680;28;20045;-69
2022/11/19 12:11:14;;;;;;;1999.90;999.90;;;4.40;99.90;;;;;;5038394;28;20056;-69
2022/11/19 12:13:54;;;;;;;1999.90;999.90;;;4.40;99.90;;;;;;5036700;28;20048;-69
2022/11/19 12:16:41;;;;;;;1999.90;999.90;;;4.40;99.90;;;;;;5063802;28;20049;-69
2022/11/19 12:19:36;;;;;;;1999.90;999.90;;;4.30;99.90;;;;;;5023268;28;20147;-69
2022/11/19 12:22:23;;;;;;;1999.90;999.90;;;4.30;99.90;;;;;;5038242;28;20048;-69
2022/11/19 12:25:07;;;;;;;1999.90;999.90;;;4.20;99.90;;;;;;5039124;28;20045;-69
2022/11/19 12:27:59;;;;;;;1999.90;999.90;;;4.20;99.90;;;;;;5040861;28;20412;-69
2022/11/19 12:30:41;;;;;;;1999.90;999.90;;;4.20;99.90;;;;;;5043226;28;20041;-69
2022/11/19 12:33:10;;;;;;;1999.90;999.90;;;4.20;99.90;;;;;;5038028;28;20037;-69
2022/11/19 12:35:43;;;;;;;1999.90;999.90;;;4.20;99.90;;;;;;5044587;28;20116;-69
2022/11/19 12:38:27;;;;;;;1999.90;999.90;;;4.10;99.90;;;;;;5033786;28;20046;-69
2022/11/19 12:41:20;;;;;;;1999.90;999.90;;;4.20;99.90;;;;;;5041486;28;20088;-69
2022/11/19 12:43:54;;;;;;;1999.90;999.90;;;4.20;99.90;;;;;;5023841;28;20133;-69
2022/11/19 12:46:36;;;;;;;1999.90;999.90;;;4.10;99.90;;;;;;5035466;28;20048;-69
2022/11/19 12:49:09;;;;;;;1999.90;999.90;;;4.10;99.90;;;;;;5041189;28;20072;-69
2022/11/19 12:51:38;;;;;;;1999.90;999.90;;;4.10;99.90;;;;;;5044266;28;20039;-69